Time;durP1;ratioP1;P1;durP2;ratioP2;P2;SDS_P1;SDS_P2;PMS_P1;PMS_P2;Temp;Humidity;BMP_temperature;BMP_pressure;BME280_temperature;BME280_humidity;BME280_pressure;Samples;Min_cycle;Max_cycle;Signal;HPM_P1;HPM_P2
2021/12/30 00:02:18;;;;;;;31.40;11.77;;;2.20;99.90;;;;;;5104826;28;20196;-60
2021/12/30 00:04:45;;;;;;;33.27;11.67;;;2.20;99.90;;;;;;5098376;28;20626;-61
2021/12/30 00:07:13;;;;;;;30.57;11.17;;;2.20;99.90;;;;;;5103035;28;20216;-60
2021/12/30 00:09:41;;;;;;;27.10;10.97;;;2.10;99.90;;;;;;5105411;28;20659;-61
2021/12/30 00:12:09;;;;;;;32.67;10.33;;;2.10;99.90;;;;;;5088834;28;20196;-60
2021/12/30 00:14:37;;;;;;;32.00;11.07;;;2.00;99.90;;;;;;5091979;28;20284;-59
2021/12/30 00:17:04;;;;;;;50.37;15.90;;;2.00;99.90;;;;;;5103342;28;20256;-60
2021/12/30 00:19:31;;;;;;;36.70;12.87;;;2.00;99.90;;;;;;5111242;28;20665;-60
2021/12/30 00:21:58;;;;;;;37.00;13.00;;;2.00;99.90;;;;;;5111342;28;20195;-60
2021/12/30 00:24:26;;;;;;;32.87;11.80;;;2.00;99.90;;;;;;5110290;28;20715;-61
2021/12/30 00:26:54;;;;;;;30.03;11.37;;;2.00;99.90;;;;;;5091592;28;20273;-60
2021/12/30 00:29:24;;;;;;;34.00;12.37;;;2.10;99.90;;;;;;5092894;28;20203;-61
2021/12/30 00:31:51;;;;;;;36.87;12.20;;;2.10;99.90;;;;;;5110278;28;20195;-60
2021/12/30 00:34:18;;;;;;;38.07;11.83;;;2.20;99.90;;;;;;5109466;28;20597;-60
2021/12/30 00:36:46;;;;;;;31.27;10.70;;;2.10;99.90;;;;;;5094802;28;20543;-61
2021/12/30 00:39:13;;;;;;;37.97;12.67;;;2.10;99.90;;;;;;5105438;28;20673;-61
2021/12/30 00:41:40;;;;;;;30.03;10.77;;;2.20;99.90;;;;;;5099787;27;20210;-60
2021/12/30 00:44:09;;;;;;;64.83;18.03;;;2.10;99.90;;;;;;5095737;28;20656;-60
2021/12/30 00:46:36;;;;;;;59.20;18.83;;;2.10;99.90;;;;;;5083530;28;20227;-60
2021/12/30 00:49:04;;;;;;;52.30;16.07;;;2.20;99.90;;;;;;5105592;28;20288;-59
2021/12/30 00:51:31;;;;;;;34.53;12.83;;;2.20;99.90;;;;;;5093729;28;20271;-59
2021/12/30 00:53:58;;;;;;;32.13;11.80;;;2.20;99.90;;;;;;5097204;28;20292;-59
2021/12/30 00:56:25;;;;;;;78.07;22.87;;;2.20;99.90;;;;;;5095942;28;20271;-60
2021/12/30 00:58:53;;;;;;;70.30;22.40;;;2.20;99.90;;;;;;5104851;28;20271;-61
2021/12/30 01:01:21;;;;;;;63.10;20.47;;;2.20;99.90;;;;;;5099143;28;20623;-61
2021/12/30 01:03:48;;;;;;;61.77;19.33;;;2.20;99.90;;;;;;5103888;28;20220;-60
2021/12/30 01:06:16;;;;;;;73.83;21.73;;;2.10;99.90;;;;;;5091022;28;20687;-61
2021/12/30 01:08:43;;;;;;;54.37;17.83;;;2.20;99.90;;;;;;5099394;28;20211;-60
2021/12/30 01:11:10;;;;;;;47.53;16.27;;;2.10;99.90;;;;;;5076633;28;20211;-60
2021/12/30 01:13:42;;;;;;;37.40;13.40;;;2.10;99.90;;;;;;5110733;28;20191;-60
2021/12/30 01:16:17;;;;;;;43.37;13.90;;;2.10;99.90;;;;;;5106892;28;20532;-60
2021/12/30 01:19:03;;;;;;;53.90;17.47;;;2.20;99.90;;;;;;5102654;28;20602;-60
2021/12/30 01:21:34;;;;;;;82.20;23.27;;;2.30;99.90;;;;;;5103843;28;20192;-60
2021/12/30 01:24:03;;;;;;;93.63;27.70;;;2.30;99.90;;;;;;5085099;28;20235;-61
2021/12/30 01:26:31;;;;;;;116.90;33.80;;;2.30;99.90;;;;;;5094074;28;20245;-60
2021/12/30 01:28:58;;;;;;;122.57;34.67;;;2.30;99.90;;;;;;5099225;28;20586;-61
2021/12/30 01:31:25;;;;;;;84.90;27.10;;;2.30;99.90;;;;;;5103451;28;20188;-60
2021/12/30 01:33:54;;;;;;;68.17;23.00;;;2.30;99.90;;;;;;5102966;28;20202;-61
2021/12/30 01:36:22;;;;;;;57.97;20.30;;;2.30;99.90;;;;;;5091591;28;20200;-61
2021/12/30 01:38:50;;;;;;;43.40;16.73;;;2.30;99.90;;;;;;5084349;28;20604;-62
2021/12/30 01:41:17;;;;;;;41.10;14.53;;;2.30;99.90;;;;;;5076317;28;20202;-60
2021/12/30 01:43:45;;;;;;;33.07;12.97;;;2.30;99.90;;;;;;5099172;28;20192;-60
2021/12/30 01:46:12;;;;;;;28.67;11.17;;;2.30;99.90;;;;;;5105664;28;20225;-60
2021/12/30 01:48:39;;;;;;;28.67;11.43;;;2.30;99.90;;;;;;5081106;28;20218;-59
2021/12/30 01:51:08;;;;;;;30.30;10.53;;;2.30;99.90;;;;;;5105811;28;20192;-59
2021/12/30 01:53:36;;;;;;;27.63;11.10;;;2.30;99.90;;;;;;5098030;28;20188;-60
2021/12/30 01:56:06;;;;;;;35.57;11.70;;;2.30;99.90;;;;;;5097657;28;20631;-60
2021/12/30 01:58:35;;;;;;;88.77;25.53;;;2.30;99.90;;;;;;5100189;28;20196;-60
2021/12/30 02:01:03;;;;;;;72.87;23.40;;;2.30;99.90;;;;;;5101996;28;20199;-60
2021/12/30 02:03:31;;;;;;;64.37;19.90;;;2.30;99.90;;;;;;5109577;28;20193;-60
2021/12/30 02:05:58;;;;;;;69.97;20.10;;;2.30;99.90;;;;;;5094243;28;20238;-62
2021/12/30 02:08:26;;;;;;;82.17;24.90;;;2.40;99.90;;;;;;5095680;28;20215;-61
2021/12/30 02:10:54;;;;;;;138.27;37.07;;;2.40;99.90;;;;;;5092947;28;20192;-62
2021/12/30 02:13:22;;;;;;;98.67;29.43;;;2.30;99.90;;;;;;5096059;28;20226;-61
2021/12/30 02:15:51;;;;;;;101.10;30.40;;;2.30;99.90;;;;;;5094757;28;20192;-61
2021/12/30 02:18:19;;;;;;;107.87;31.87;;;2.30;99.90;;;;;;5112194;28;20203;-60
2021/12/30 02:20:53;;;;;;;79.63;25.97;;;2.40;99.90;;;;;;5094664;28;20222;-60
2021/12/30 02:23:22;;;;;;;64.67;21.17;;;2.30;99.90;;;;;;5111547;28;20654;-60
2021/12/30 02:25:52;;;;;;;60.70;19.53;;;2.40;99.90;;;;;;5108473;28;20654;-60
2021/12/30 02:28:22;;;;;;;62.30;20.17;;;2.30;99.90;;;;;;5086273;28;20692;-60
2021/12/30 02:30:51;;;;;;;98.10;29.03;;;2.40;99.90;;;;;;5081088;28;20640;-60
2021/12/30 02:33:18;;;;;;;109.20;33.53;;;2.40;99.90;;;;;;5095591;28;20204;-60
2021/12/30 02:35:45;;;;;;;96.43;30.43;;;2.40;99.90;;;;;;5090145;28;20246;-60
2021/12/30 02:38:16;;;;;;;74.90;25.23;;;2.50;99.90;;;;;;5099495;28;20730;-60
2021/12/30 02:40:49;;;;;;;59.10;21.13;;;2.40;99.90;;;;;;5102909;27;20196;-60
2021/12/30 02:43:21;;;;;;;48.33;17.33;;;2.40;99.90;;;;;;5113916;28;20244;-60
2021/12/30 02:45:48;;;;;;;39.47;15.00;;;2.40;99.90;;;;;;5080908;28;20548;-59
2021/12/30 02:48:18;;;;;;;41.63;13.27;;;2.50;99.90;;;;;;5106289;28;20268;-60
2021/12/30 02:50:46;;;;;;;30.23;11.50;;;2.50;99.90;;;;;;5111692;28;20184;-60
2021/12/30 02:53:15;;;;;;;34.37;11.67;;;2.50;99.90;;;;;;5113229;28;20532;-60
2021/12/30 02:55:43;;;;;;;35.13;12.57;;;2.50;99.90;;;;;;5110612;28;20682;-60
2021/12/30 02:58:11;;;;;;;30.87;10.83;;;2.50;99.90;;;;;;5103238;28;20185;-60
2021/12/30 03:00:39;;;;;;;24.63;9.50;;;2.50;99.90;;;;;;5106653;28;20249;-61
2021/12/30 03:03:06;;;;;;;22.70;9.07;;;2.50;99.90;;;;;;5111826;28;20283;-61
2021/12/30 03:05:34;;;;;;;23.87;8.67;;;2.50;99.90;;;;;;5093230;28;20188;-60
2021/12/30 03:08:01;;;;;;;19.87;8.80;;;2.50;99.90;;;;;;5094386;28;20226;-61
2021/12/30 03:10:30;;;;;;;20.97;8.60;;;2.50;99.90;;;;;;5100539;28;20698;-61
2021/12/30 03:13:03;;;;;;;16.93;7.33;;;2.60;99.90;;;;;;5101036;28;20274;-61
2021/12/30 03:15:32;;;;;;;23.27;9.37;;;2.60;99.90;;;;;;5088387;28;20299;-61
2021/12/30 03:17:59;;;;;;;17.73;7.43;;;2.60;99.90;;;;;;5103338;28;20194;-60
2021/12/30 03:20:26;;;;;;;14.33;6.73;;;2.60;99.90;;;;;;5112297;28;20192;-60
2021/12/30 03:22:54;;;;;;;21.13;9.07;;;2.60;99.90;;;;;;5108001;28;20285;-60
2021/12/30 03:25:21;;;;;;;65.43;18.90;;;2.70;99.90;;;;;;5108688;28;20629;-61
2021/12/30 03:27:49;;;;;;;77.77;24.97;;;2.60;99.90;;;;;;5109977;28;20209;-61
2021/12/30 03:30:17;;;;;;;76.13;23.53;;;2.60;99.90;;;;;;5083242;28;20686;-61
2021/12/30 03:32:45;;;;;;;55.40;18.93;;;2.60;99.90;;;;;;5097157;28;20193;-61
2021/12/30 03:35:14;;;;;;;41.67;17.03;;;2.70;99.90;;;;;;5102181;28;20613;-61
2021/12/30 03:37:41;;;;;;;38.57;14.90;;;2.60;99.90;;;;;;5097055;28;20193;-60
2021/12/30 03:40:12;;;;;;;35.67;13.73;;;2.60;99.90;;;;;;5106480;28;20249;-59
2021/12/30 03:42:39;;;;;;;43.10;15.43;;;2.60;99.90;;;;;;5102800;28;20184;-60
2021/12/30 03:45:11;;;;;;;36.47;12.60;;;2.60;99.90;;;;;;5106037;28;20192;-61
2021/12/30 03:47:42;;;;;;;28.17;11.80;;;2.60;99.90;;;;;;5102226;28;20211;-61
2021/12/30 03:50:17;;;;;;;26.40;10.70;;;2.60;99.90;;;;;;5103836;28;20187;-61
2021/12/30 03:52:44;;;;;;;21.37;8.70;;;2.60;99.90;;;;;;5103381;28;20198;-61
2021/12/30 03:55:12;;;;;;;25.60;9.10;;;2.60;99.90;;;;;;5099964;28;20770;-61
2021/12/30 03:57:39;;;;;;;20.30;8.30;;;2.60;99.90;;;;;;5100171;28;20188;-61
2021/12/30 04:00:09;;;;;;;19.53;7.60;;;2.60;99.90;;;;;;5081205;28;20242;-61
2021/12/30 04:02:37;;;;;;;25.53;9.57;;;2.60;99.90;;;;;;5109386;28;20196;-61
2021/12/30 04:05:04;;;;;;;23.10;8.63;;;2.60;99.90;;;;;;5080621;28;20647;-61
2021/12/30 04:07:32;;;;;;;25.33;9.70;;;2.60;99.90;;;;;;5093334;28;20317;-61
2021/12/30 04:09:59;;;;;;;32.50;11.53;;;2.60;99.90;;;;;;5110125;28;20539;-61
2021/12/30 04:12:26;;;;;;;24.33;9.93;;;2.60;99.90;;;;;;5092995;28;20259;-61
2021/12/30 04:14:53;;;;;;;28.10;10.33;;;2.60;99.90;;;;;;5094109;28;20193;-61
2021/12/30 04:17:22;;;;;;;33.53;12.23;;;2.60;99.90;;;;;;5092611;28;20207;-60
2021/12/30 04:19:50;;;;;;;37.13;12.70;;;2.60;99.90;;;;;;5106270;28;20184;-60
2021/12/30 04:22:18;;;;;;;31.47;11.43;;;2.60;99.90;;;;;;5092967;28;20253;-60
2021/12/30 04:24:45;;;;;;;35.83;12.53;;;2.70;99.90;;;;;;5106588;28;20197;-61
2021/12/30 04:27:13;;;;;;;30.27;11.70;;;2.70;99.90;;;;;;5084181;28;20585;-61
2021/12/30 04:29:40;;;;;;;29.80;11.30;;;2.70;99.90;;;;;;5109228;28;20216;-61
2021/12/30 04:32:07;;;;;;;33.53;11.33;;;2.70;99.90;;;;;;5108258;28;20236;-61
2021/12/30 04:34:36;;;;;;;30.23;11.83;;;2.60;99.90;;;;;;5108086;28;20192;-60
2021/12/30 04:37:03;;;;;;;44.17;15.83;;;2.60;99.90;;;;;;5110757;28;20593;-61
2021/12/30 04:39:31;;;;;;;40.00;13.80;;;2.60;99.90;;;;;;5091109;28;20199;-61
2021/12/30 04:42:01;;;;;;;57.07;19.20;;;2.60;99.90;;;;;;5096402;28;20200;-61
2021/12/30 04:44:29;;;;;;;48.23;17.77;;;2.60;99.90;;;;;;5078358;28;20214;-61
2021/12/30 04:46:56;;;;;;;34.57;13.30;;;2.70;99.90;;;;;;5096348;28;20279;-62
2021/12/30 04:49:23;;;;;;;34.87;13.13;;;2.70;99.90;;;;;;5105404;28;20215;-61
2021/12/30 04:51:52;;;;;;;29.50;12.17;;;2.70;99.90;;;;;;5092506;28;20241;-61
2021/12/30 04:54:19;;;;;;;33.77;12.33;;;2.70;99.90;;;;;;5100994;28;20188;-61
2021/12/30 04:56:46;;;;;;;30.73;11.63;;;2.70;99.90;;;;;;5081852;28;20554;-60
2021/12/30 04:59:14;;;;;;;33.17;12.50;;;2.70;99.90;;;;;;5099980;28;20188;-60
2021/12/30 05:01:41;;;;;;;26.47;11.17;;;2.70;99.90;;;;;;5104316;28;20244;-60
2021/12/30 05:04:08;;;;;;;32.67;12.07;;;2.70;99.90;;;;;;5100893;28;20228;-61
2021/12/30 05:06:36;;;;;;;35.57;13.37;;;2.70;99.90;;;;;;5107117;28;20195;-62
2021/12/30 05:09:08;;;;;;;31.83;12.97;;;2.70;99.90;;;;;;5082450;28;20302;-61
2021/12/30 05:11:36;;;;;;;31.60;11.87;;;2.80;99.90;;;;;;5105379;28;20190;-60
2021/12/30 05:14:04;;;;;;;36.17;13.97;;;2.70;99.90;;;;;;5110618;28;20264;-60
2021/12/30 05:16:31;;;;;;;32.10;12.97;;;2.70;99.90;;;;;;5115755;27;20199;-60
2021/12/30 05:18:58;;;;;;;32.30;12.87;;;2.70;99.90;;;;;;5110298;28;20528;-60
2021/12/30 05:21:25;;;;;;;39.53;13.40;;;2.70;99.90;;;;;;5097759;28;20203;-60
2021/12/30 05:23:53;;;;;;;27.40;11.30;;;2.70;99.90;;;;;;5103122;28;20655;-60
2021/12/30 05:26:25;;;;;;;24.87;10.20;;;2.70;99.90;;;;;;5103669;28;20199;-60
2021/12/30 05:28:52;;;;;;;23.50;9.30;;;2.70;99.90;;;;;;5108584;28;20214;-61
2021/12/30 05:31:19;;;;;;;30.63;11.50;;;2.70;99.90;;;;;;5095824;28;20252;-60
2021/12/30 05:33:46;;;;;;;24.97;10.17;;;2.70;99.90;;;;;;5116928;28;20199;-61
2021/12/30 05:36:13;;;;;;;33.40;11.90;;;2.70;99.90;;;;;;5104021;28;20187;-61
2021/12/30 05:38:40;;;;;;;27.40;11.03;;;2.70;99.90;;;;;;5117297;28;20672;-60
2021/12/30 05:41:07;;;;;;;27.27;10.23;;;2.70;99.90;;;;;;5092952;28;20620;-60
2021/12/30 05:43:36;;;;;;;68.57;20.27;;;2.70;99.90;;;;;;5117132;28;20608;-60
2021/12/30 05:46:03;;;;;;;62.57;21.00;;;2.70;99.90;;;;;;5115297;28;20256;-61
2021/12/30 05:48:30;;;;;;;50.17;18.37;;;2.70;99.90;;;;;;5117026;28;20561;-61
2021/12/30 05:50:59;;;;;;;57.50;20.27;;;2.70;99.90;;;;;;5120463;27;20650;-61
2021/12/30 05:53:27;;;;;;;53.37;16.90;;;2.70;99.90;;;;;;5092100;28;20574;-60
2021/12/30 05:55:54;;;;;;;33.63;13.80;;;2.70;99.90;;;;;;5107885;28;20352;-61
2021/12/30 05:58:22;;;;;;;43.20;14.63;;;2.70;99.90;;;;;;5098554;28;20191;-61
2021/12/30 06:00:50;;;;;;;40.10;14.80;;;2.70;99.90;;;;;;5108008;28;20200;-61
2021/12/30 06:03:19;;;;;;;98.60;27.77;;;2.60;99.90;;;;;;5113914;28;20196;-61
2021/12/30 06:05:46;;;;;;;81.70;25.40;;;2.70;99.90;;;;;;5116562;28;20192;-61
2021/12/30 06:08:14;;;;;;;62.33;22.10;;;2.70;99.90;;;;;;5116486;28;20211;-61
2021/12/30 06:10:42;;;;;;;55.07;19.50;;;2.70;99.90;;;;;;5113644;28;20264;-61
2021/12/30 06:13:10;;;;;;;55.37;18.90;;;2.70;99.90;;;;;;5096581;28;20223;-61
2021/12/30 06:15:37;;;;;;;47.77;16.43;;;2.70;99.90;;;;;;5108589;28;20226;-61
2021/12/30 06:18:06;;;;;;;82.47;25.07;;;2.70;99.90;;;;;;5113189;28;20199;-61
2021/12/30 06:20:33;;;;;;;54.20;18.20;;;2.70;99.90;;;;;;5115562;28;20704;-61
2021/12/30 06:23:00;;;;;;;57.87;19.80;;;2.70;99.90;;;;;;5094564;28;20239;-60
2021/12/30 06:25:28;;;;;;;57.23;19.87;;;2.70;99.90;;;;;;5104716;28;20601;-60
2021/12/30 06:27:55;;;;;;;43.70;17.07;;;2.70;99.90;;;;;;5111227;28;20246;-59
2021/12/30 06:30:22;;;;;;;102.53;33.50;;;2.70;99.90;;;;;;5110186;28;20310;-60
2021/12/30 06:32:49;;;;;;;86.93;26.90;;;2.80;99.90;;;;;;5092541;28;20283;-62
2021/12/30 06:35:18;;;;;;;73.67;25.00;;;2.80;99.90;;;;;;5087888;28;20195;-61
2021/12/30 06:37:45;;;;;;;57.80;20.60;;;2.80;99.90;;;;;;5110664;28;20673;-61
2021/12/30 06:40:14;;;;;;;66.67;21.50;;;2.90;99.90;;;;;;5111436;27;20547;-61
2021/12/30 06:42:43;;;;;;;53.00;19.10;;;2.80;99.90;;;;;;5105667;28;20202;-60
2021/12/30 06:45:12;;;;;;;42.33;15.87;;;2.80;99.90;;;;;;5101238;28;20192;-60
2021/12/30 06:47:39;;;;;;;56.03;20.33;;;2.80;99.90;;;;;;5099926;28;20204;-61
2021/12/30 06:50:07;;;;;;;48.97;17.63;;;2.90;99.90;;;;;;5104966;28;20317;-60
2021/12/30 06:52:36;;;;;;;45.10;17.13;;;2.90;99.90;;;;;;5100035;28;20248;-60
2021/12/30 06:55:03;;;;;;;38.53;14.10;;;2.90;99.90;;;;;;5103836;28;20260;-61
2021/12/30 06:57:30;;;;;;;51.17;18.37;;;2.90;99.90;;;;;;5106508;28;20588;-61
2021/12/30 06:59:58;;;;;;;37.70;14.30;;;2.90;99.90;;;;;;5098740;28;20215;-61
2021/12/30 07:02:25;;;;;;;32.73;12.70;;;2.90;99.90;;;;;;5102020;28;20200;-61
2021/12/30 07:04:52;;;;;;;29.80;11.77;;;3.00;99.90;;;;;;5095726;28;20199;-61
2021/12/30 07:07:19;;;;;;;33.10;14.43;;;3.00;99.90;;;;;;5103607;28;20192;-61
2021/12/30 07:09:48;;;;;;;28.13;11.53;;;3.00;99.90;;;;;;5110540;28;20562;-61
2021/12/30 07:12:15;;;;;;;37.50;13.10;;;3.00;99.90;;;;;;5104229;28;20188;-60
2021/12/30 07:14:42;;;;;;;30.87;12.33;;;3.10;99.90;;;;;;5109147;28;20196;-60
2021/12/30 07:17:09;;;;;;;30.37;11.57;;;3.10;99.90;;;;;;5118833;27;20248;-61
2021/12/30 07:19:36;;;;;;;26.33;11.43;;;3.00;99.90;;;;;;5107610;28;20188;-61
2021/12/30 07:22:04;;;;;;;30.60;11.73;;;3.10;99.90;;;;;;5109240;28;20689;-61
2021/12/30 07:24:31;;;;;;;28.57;10.93;;;3.00;99.90;;;;;;5105085;28;20228;-62
2021/12/30 07:26:59;;;;;;;65.23;20.87;;;3.00;99.90;;;;;;5107791;28;20202;-60
2021/12/30 07:29:26;;;;;;;60.10;20.20;;;3.00;99.90;;;;;;5106914;28;20200;-60
2021/12/30 07:31:54;;;;;;;47.27;17.07;;;3.00;99.90;;;;;;5100180;28;20195;-60
2021/12/30 07:34:21;;;;;;;50.97;19.77;;;3.00;99.90;;;;;;5104198;28;21141;-61
2021/12/30 07:36:48;;;;;;;66.27;24.80;;;3.00;99.90;;;;;;5099665;28;20196;-61
2021/12/30 07:39:15;;;;;;;84.23;28.40;;;3.10;99.90;;;;;;5104192;28;20197;-60
2021/12/30 07:41:42;;;;;;;76.20;25.37;;;3.10;99.90;;;;;;5101437;28;20682;-60
2021/12/30 07:44:11;;;;;;;57.87;21.70;;;3.10;99.90;;;;;;5095422;28;20303;-60
2021/12/30 07:46:38;;;;;;;51.87;20.03;;;3.10;99.90;;;;;;5094730;28;20251;-60
2021/12/30 07:49:06;;;;;;;74.97;24.33;;;3.10;99.90;;;;;;5100735;28;20200;-60
2021/12/30 07:51:33;;;;;;;61.40;22.87;;;3.20;99.90;;;;;;5099492;28;20200;-60
2021/12/30 07:54:00;;;;;;;97.07;32.33;;;3.20;99.90;;;;;;5099032;28;20273;-60
2021/12/30 07:56:30;;;;;;;75.17;28.23;;;3.20;99.90;;;;;;5101364;28;20191;-60
2021/12/30 07:58:58;;;;;;;65.13;25.00;;;3.20;99.90;;;;;;5098637;28;20189;-61
2021/12/30 08:01:26;;;;;;;73.87;25.87;;;3.20;99.90;;;;;;5083962;28;20196;-61
2021/12/30 08:03:53;;;;;;;69.40;24.87;;;3.20;99.90;;;;;;5096369;28;20679;-61
2021/12/30 08:06:22;;;;;;;51.37;20.80;;;3.20;99.90;;;;;;5092398;28;20231;-61
2021/12/30 08:08:49;;;;;;;44.30;17.80;;;3.20;99.90;;;;;;5111093;28;20196;-61
2021/12/30 08:11:16;;;;;;;34.47;15.07;;;3.20;99.90;;;;;;5096891;28;20271;-62
2021/12/30 08:13:43;;;;;;;32.57;13.40;;;3.30;99.90;;;;;;5094119;28;20220;-62
2021/12/30 08:16:12;;;;;;;27.13;11.37;;;3.30;99.90;;;;;;5096943;28;20245;-62
2021/12/30 08:18:40;;;;;;;25.30;10.37;;;3.30;99.90;;;;;;5107328;28;20662;-62
2021/12/30 08:21:07;;;;;;;22.23;10.47;;;3.30;99.90;;;;;;5107933;28;20198;-61
2021/12/30 08:23:35;;;;;;;21.10;9.57;;;3.40;99.90;;;;;;5094763;28;20224;-61
2021/12/30 08:26:03;;;;;;;19.30;8.80;;;3.40;99.90;;;;;;5083193;28;20203;-62
2021/12/30 08:28:30;;;;;;;16.30;7.47;;;3.40;99.90;;;;;;5096500;28;20546;-61
2021/12/30 08:30:57;;;;;;;21.10;8.77;;;3.40;99.90;;;;;;5102993;28;20219;-61
2021/12/30 08:33:25;;;;;;;28.80;11.57;;;3.50;99.90;;;;;;5105215;28;20733;-61
2021/12/30 08:35:54;;;;;;;26.03;10.40;;;3.50;99.90;;;;;;5098051;28;20453;-61
2021/12/30 08:38:21;;;;;;;34.37;11.73;;;3.50;99.90;;;;;;5101535;28;20560;-62
2021/12/30 08:40:48;;;;;;;18.50;9.63;;;3.50;99.90;;;;;;5096666;28;20229;-61
2021/12/30 08:43:16;;;;;;;18.83;9.03;;;3.60;99.90;;;;;;5110228;28;20529;-61
2021/12/30 08:45:44;;;;;;;18.70;8.83;;;3.60;99.90;;;;;;5098318;28;20749;-61
2021/12/30 08:48:11;;;;;;;18.00;8.20;;;3.70;99.90;;;;;;5101538;28;20325;-60
2021/12/30 08:50:39;;;;;;;21.67;8.90;;;3.70;99.90;;;;;;5105782;28;20211;-60
2021/12/30 08:53:08;;;;;;;22.53;9.87;;;3.80;99.90;;;;;;5090385;28;20207;-60
2021/12/30 08:55:35;;;;;;;26.13;11.87;;;3.80;99.90;;;;;;5100672;28;20198;-60
2021/12/30 08:58:03;;;;;;;21.13;9.83;;;3.80;99.90;;;;;;5101841;28;20204;-62
2021/12/30 09:00:36;;;;;;;20.03;9.10;;;3.80;99.90;;;;;;5105351;28;20270;-61
2021/12/30 09:03:05;;;;;;;20.60;9.47;;;3.90;99.90;;;;;;5103811;28;20246;-61
2021/12/30 09:05:33;;;;;;;25.03;10.40;;;3.90;99.90;;;;;;5090656;28;20249;-60
2021/12/30 09:08:00;;;;;;;21.73;9.97;;;4.00;99.90;;;;;;5091586;28;20204;-61
2021/12/30 09:10:33;;;;;;;30.00;12.77;;;4.00;99.90;;;;;;5089925;28;20216;-60
2021/12/30 09:13:00;;;;;;;31.23;13.53;;;4.00;99.90;;;;;;5103960;28;20203;-60
2021/12/30 09:15:29;;;;;;;31.20;13.23;;;4.10;99.90;;;;;;5106758;28;20642;-60
2021/12/30 09:17:58;;;;;;;27.93;11.97;;;4.10;99.90;;;;;;5094365;28;20196;-60
2021/12/30 09:20:25;;;;;;;26.90;11.03;;;4.10;99.90;;;;;;5104143;28;20261;-61
2021/12/30 09:22:54;;;;;;;24.60;10.90;;;4.10;99.90;;;;;;5096357;28;20257;-60
2021/12/30 09:25:23;;;;;;;21.97;9.80;;;4.10;99.90;;;;;;5098240;28;20194;-60
2021/12/30 09:27:54;;;;;;;16.57;8.57;;;4.10;99.90;;;;;;5107821;28;20697;-60
2021/12/30 09:30:22;;;;;;;18.33;8.97;;;4.10;99.90;;;;;;5100417;28;20208;-60
2021/12/30 09:32:51;;;;;;;25.67;10.67;;;4.10;99.90;;;;;;5097249;28;20195;-60
2021/12/30 09:35:19;;;;;;;35.13;14.10;;;4.10;99.90;;;;;;5094294;28;20192;-60
2021/12/30 09:37:47;;;;;;;43.60;17.23;;;4.10;99.90;;;;;;5099387;28;20646;-60
2021/12/30 09:40:16;;;;;;;49.07;20.63;;;4.10;99.90;;;;;;5093623;28;20245;-60
2021/12/30 09:42:46;;;;;;;46.67;17.87;;;4.00;99.90;;;;;;5103329;28;20193;-60
2021/12/30 09:45:15;;;;;;;39.23;15.50;;;4.00;99.90;;;;;;5103506;28;20202;-60
2021/12/30 09:47:45;;;;;;;48.97;18.80;;;4.00;99.90;;;;;;5097839;28;20222;-60
2021/12/30 09:50:12;;;;;;;63.40;24.67;;;4.00;99.90;;;;;;5105230;28;20212;-60
2021/12/30 09:52:39;;;;;;;65.57;25.17;;;4.00;99.90;;;;;;5093418;28;20486;-60
2021/12/30 09:55:08;;;;;;;71.60;28.27;;;4.00;99.90;;;;;;5102910;28;20188;-60
2021/12/30 09:57:35;;;;;;;57.33;22.73;;;4.00;99.90;;;;;;5096597;28;20212;-60
2021/12/30 10:00:03;;;;;;;68.00;25.80;;;4.00;99.90;;;;;;5084820;28;20638;-60
2021/12/30 10:02:41;;;;;;;64.43;24.80;;;4.10;99.90;;;;;;5103574;28;20670;-61
2021/12/30 10:05:10;;;;;;;50.00;20.60;;;4.10;99.90;;;;;;5109551;28;20195;-61
2021/12/30 10:07:39;;;;;;;42.80;17.03;;;4.10;99.90;;;;;;5108846;28;20200;-61
2021/12/30 10:10:26;;;;;;;35.87;15.80;;;4.20;99.90;;;;;;5108855;28;20214;-61
2021/12/30 10:12:54;;;;;;;47.43;17.93;;;4.30;99.90;;;;;;5091357;28;20686;-61
2021/12/30 10:15:24;;;;;;;37.60;15.40;;;4.30;99.90;;;;;;5105840;28;20200;-61
2021/12/30 10:17:57;;;;;;;67.47;24.60;;;4.30;99.90;;;;;;5109372;28;20211;-60
2021/12/30 10:20:27;;;;;;;48.67;20.27;;;4.40;99.90;;;;;;5101114;28;20202;-60
2021/12/30 10:22:56;;;;;;;75.20;24.77;;;4.40;99.90;;;;;;5100979;28;20312;-61
2021/12/30 10:25:29;;;;;;;66.53;24.73;;;4.40;99.90;;;;;;5109035;28;20192;-60
2021/12/30 10:27:57;;;;;;;88.87;33.30;;;4.40;99.90;;;;;;5107749;28;20256;-60
2021/12/30 10:30:32;;;;;;;63.23;26.00;;;4.40;99.90;;;;;;5105534;28;20406;-60
2021/12/30 10:33:16;;;;;;;70.40;27.50;;;4.30;99.90;;;;;;5090009;28;20732;-61
2021/12/30 10:35:43;;;;;;;80.97;30.03;;;4.30;99.90;;;;;;5102832;28;20305;-61
2021/12/30 10:38:12;;;;;;;54.07;23.40;;;4.30;99.90;;;;;;5111069;28;20195;-60
2021/12/30 10:40:42;;;;;;;53.03;21.60;;;4.30;99.90;;;;;;5109632;27;20180;-61
2021/12/30 10:43:25;;;;;;;54.17;20.40;;;4.30;99.90;;;;;;5104988;28;20195;-61
2021/12/30 10:46:04;;;;;;;41.33;16.57;;;4.30;99.90;;;;;;5104189;28;20222;-61
2021/12/30 10:48:33;;;;;;;30.57;13.63;;;4.40;99.90;;;;;;5103006;28;20195;-60
2021/12/30 10:51:11;;;;;;;31.00;13.60;;;4.40;99.90;;;;;;5106578;28;20220;-62
2021/12/30 10:53:39;;;;;;;28.07;12.63;;;4.40;99.90;;;;;;5078457;28;20651;-61
2021/12/30 10:56:30;;;;;;;32.67;13.13;;;4.40;99.90;;;;;;5086428;28;20203;-62
2021/12/30 10:59:20;;;;;;;32.40;13.43;;;4.40;99.90;;;;;;5108723;28;20270;-61
2021/12/30 11:01:50;;;;;;;29.07;12.27;;;4.40;99.90;;;;;;5111169;28;20188;-61
2021/12/30 11:04:19;;;;;;;50.60;19.70;;;4.40;99.90;;;;;;5104401;28;20196;-62
2021/12/30 11:06:47;;;;;;;77.73;29.53;;;4.40;99.90;;;;;;5094059;28;20193;-65
2021/12/30 11:09:17;;;;;;;85.97;32.47;;;4.40;99.90;;;;;;5106107;28;20191;-61
2021/12/30 11:11:51;;;;;;;74.37;30.13;;;4.40;99.90;;;;;;5098223;28;20219;-61
2021/12/30 11:14:21;;;;;;;67.37;25.83;;;4.30;99.90;;;;;;5112256;28;20564;-60
2021/12/30 11:17:12;;;;;;;57.43;23.00;;;4.30;99.90;;;;;;5107613;28;20238;-60
2021/12/30 11:19:43;;;;;;;43.13;18.27;;;4.30;99.90;;;;;;5083806;28;20261;-60
2021/12/30 11:22:15;;;;;;;45.00;18.10;;;4.30;99.90;;;;;;5099194;28;20679;-60
2021/12/30 11:24:44;;;;;;;61.53;22.33;;;4.40;99.90;;;;;;5106086;28;20656;-60
2021/12/30 11:27:14;;;;;;;49.80;20.53;;;4.40;99.90;;;;;;5107999;28;20234;-61
2021/12/30 11:29:45;;;;;;;59.23;22.80;;;4.40;99.90;;;;;;5109165;28;20594;-61
2021/12/30 11:32:15;;;;;;;52.23;21.03;;;4.50;99.90;;;;;;5108951;28;20691;-61
2021/12/30 11:34:44;;;;;;;76.93;26.90;;;4.50;99.90;;;;;;5108622;28;20196;-61
2021/12/30 11:37:12;;;;;;;72.40;26.67;;;4.50;99.90;;;;;;5107222;28;20274;-60
2021/12/30 11:39:44;;;;;;;67.63;25.73;;;4.50;99.90;;;;;;5107036;28;20780;-60
2021/12/30 11:42:16;;;;;;;50.30;20.37;;;4.50;99.90;;;;;;5105953;28;20187;-61
2021/12/30 11:44:46;;;;;;;60.63;22.97;;;4.50;99.90;;;;;;5094843;28;20279;-61
2021/12/30 11:47:42;;;;;;;45.43;19.17;;;4.50;99.90;;;;;;5105591;28;20286;-60
2021/12/30 11:50:14;;;;;;;48.10;18.63;;;4.50;99.90;;;;;;5092531;28;20574;-61
2021/12/30 11:52:56;;;;;;;57.53;19.93;;;4.50;99.90;;;;;;5099029;28;20203;-62
2021/12/30 11:55:53;;;;;;;38.70;14.97;;;4.50;99.90;;;;;;5098079;28;20211;-62
2021/12/30 11:58:48;;;;;;;31.10;14.03;;;4.50;99.90;;;;;;5100213;28;20193;-61
2021/12/30 12:01:33;;;;;;;42.20;16.47;;;4.60;99.90;;;;;;5106032;28;20577;-61
2021/12/30 12:04:12;;;;;;;38.30;15.40;;;4.60;99.90;;;;;;5100147;28;20191;-61
2021/12/30 12:06:57;;;;;;;30.10;13.07;;;4.60;99.90;;;;;;5092679;28;20643;-61
2021/12/30 12:09:36;;;;;;;45.03;18.33;;;5.30;99.90;;;;;;5072357;28;20280;-60
2021/12/30 12:12:05;;;;;;;35.87;14.60;;;4.60;99.90;;;;;;5072281;28;20219;-60
2021/12/30 12:14:36;;;;;;;51.13;18.97;;;4.60;99.90;;;;;;5106611;28;20409;-60
2021/12/30 12:17:05;;;;;;;55.67;19.63;;;4.60;99.90;;;;;;5111332;28;20559;-60
2021/12/30 12:19:41;;;;;;;59.03;21.27;;;4.60;99.90;;;;;;5092228;28;20200;-61
2021/12/30 12:22:26;;;;;;;41.03;16.63;;;4.60;99.90;;;;;;5081591;28;20198;-62
2021/12/30 12:25:08;;;;;;;33.27;13.73;;;4.60;99.90;;;;;;5110231;28;20611;-61
2021/12/30 12:27:37;;;;;;;38.30;14.87;;;4.70;99.90;;;;;;5100281;28;20188;-61
2021/12/30 12:30:07;;;;;;;33.20;14.43;;;4.70;99.90;;;;;;5109720;28;20262;-61
2021/12/30 12:32:40;;;;;;;31.67;12.53;;;4.60;99.90;;;;;;5091318;28;20203;-61
2021/12/30 12:35:25;;;;;;;24.73;11.70;;;4.60;99.90;;;;;;5092259;28;20203;-61
2021/12/30 12:37:59;;;;;;;44.50;16.27;;;4.50;99.90;;;;;;5097385;28;20647;-61
2021/12/30 12:40:33;;;;;;;44.63;17.87;;;4.60;99.90;;;;;;5106347;28;20187;-61
2021/12/30 12:43:04;;;;;;;40.47;15.97;;;4.60;99.90;;;;;;5096259;28;20191;-61
2021/12/30 12:45:33;;;;;;;48.87;17.17;;;4.60;99.90;;;;;;5084875;28;20589;-61
2021/12/30 12:48:22;;;;;;;32.03;13.90;;;4.50;99.90;;;;;;5105590;28;20689;-62
2021/12/30 12:50:52;;;;;;;36.73;15.00;;;4.60;99.90;;;;;;5101784;28;20264;-61